Vinton, Nebraska
Current Conditions -  °F | °C
As of 3:07 AM on Saturday 22 Nov 2014 (Local Time) from KODX Reporting Station
Haze Haze  
Wind Chill: 22°   Ceiling: Unl
Heat Index: 27°   Visibility: 4mi
Dew Point: 25°   Wind: 5mph
Humidity: 92%   Direction: 130°SE
Pressure: 29.84"   Gusts: NA
Location:  41.4381°N, 99.098°W
Report Text: KODX 220907Z AUTO 13004KT 4SM BR SCT004 M03/M04 A2984 RMK AO2 T10281039
Loading
Personal Weather Stations






























Interactive Weather Map New forecast layout! Learn more

10-Day Weather Forecast

Advertisements
Track Severe Weather on mobile